sensor_id;sensor_type;location;lat;lon;timestamp;P1;durP1;ratioP1;P2;durP2;ratioP2
495;SDS011;39559;48.630;9.162;2022-07-06T00:03:03;8.63;;;7.72;;
495;SDS011;39559;48.630;9.162;2022-07-06T00:05:28;7.57;;;6.87;;
495;SDS011;39559;48.630;9.162;2022-07-06T00:07:54;7.90;;;7.10;;
495;SDS011;39559;48.630;9.162;2022-07-06T00:10:19;7.63;;;6.93;;
495;SDS011;39559;48.630;9.162;2022-07-06T00:12:45;7.60;;;6.80;;
495;SDS011;39559;48.630;9.162;2022-07-06T00:15:10;8.40;;;7.40;;
495;SDS011;39559;48.630;9.162;2022-07-06T00:17:36;8.20;;;7.40;;
495;SDS011;39559;48.630;9.162;2022-07-06T00:20:02;8.10;;;7.30;;
495;SDS011;39559;48.630;9.162;2022-07-06T00:22:27;8.97;;;8.07;;
495;SDS011;39559;48.630;9.162;2022-07-06T00:26:59;10.18;;;7.70;;
495;SDS011;39559;48.630;9.162;2022-07-06T00:29:25;8.57;;;7.77;;
495;SDS011;39559;48.630;9.162;2022-07-06T00:31:50;8.77;;;7.97;;
495;SDS011;39559;48.630;9.162;2022-07-06T00:34:16;8.47;;;7.67;;
495;SDS011;39559;48.630;9.162;2022-07-06T00:36:41;9.03;;;7.70;;
495;SDS011;39559;48.630;9.162;2022-07-06T00:39:07;8.37;;;7.57;;
495;SDS011;39559;48.630;9.162;2022-07-06T00:41:32;9.87;;;8.93;;
495;SDS011;39559;48.630;9.162;2022-07-06T00:43:58;8.33;;;7.57;;
495;SDS011;39559;48.630;9.162;2022-07-06T00:46:26;9.13;;;8.27;;
495;SDS011;39559;48.630;9.162;2022-07-06T00:50:55;9.13;;;7.40;;
495;SDS011;39559;48.630;9.162;2022-07-06T00:53:21;8.17;;;7.47;;
495;SDS011;39559;48.630;9.162;2022-07-06T00:55:47;9.37;;;8.47;;
495;SDS011;39559;48.630;9.162;2022-07-06T00:58:12;8.50;;;7.60;;
495;SDS011;39559;48.630;9.162;2022-07-06T01:00:38;7.70;;;7.00;;
495;SDS011;39559;48.630;9.162;2022-07-06T01:03:09;9.55;;;8.55;;
495;SDS011;39559;48.630;9.162;2022-07-06T01:05:35;8.13;;;7.30;;
495;SDS011;39559;48.630;9.162;2022-07-06T01:08:00;8.87;;;7.83;;
495;SDS011;39559;48.630;9.162;2022-07-06T01:10:26;8.63;;;7.43;;
495;SDS011;39559;48.630;9.162;2022-07-06T01:14:51;9.73;;;8.20;;
495;SDS011;39559;48.630;9.162;2022-07-06T01:17:18;9.20;;;8.00;;
495;SDS011;39559;48.630;9.162;2022-07-06T01:19:44;9.40;;;8.50;;
495;SDS011;39559;48.630;9.162;2022-07-06T01:22:09;8.80;;;8.00;;
495;SDS011;39559;48.630;9.162;2022-07-06T01:24:36;9.38;;;8.57;;
495;SDS011;39559;48.630;9.162;2022-07-06T01:27:03;10.35;;;9.40;;
495;SDS011;39559;48.630;9.162;2022-07-06T01:29:30;9.02;;;8.15;;
495;SDS011;39559;48.630;9.162;2022-07-06T01:31:57;8.55;;;7.75;;
495;SDS011;39559;48.630;9.162;2022-07-06T01:34:23;8.73;;;7.90;;
495;SDS011;39559;48.630;9.162;2022-07-06T01:41:13;9.33;;;8.00;;
495;SDS011;39559;48.630;9.162;2022-07-06T01:43:39;8.93;;;8.13;;
495;SDS011;39559;48.630;9.162;2022-07-06T01:46:05;9.17;;;7.97;;
495;SDS011;39559;48.630;9.162;2022-07-06T01:48:31;10.20;;;9.15;;
495;SDS011;39559;48.630;9.162;2022-07-06T01:50:56;10.50;;;8.17;;
495;SDS011;39559;48.630;9.162;2022-07-06T01:53:22;8.67;;;7.83;;
495;SDS011;39559;48.630;9.162;2022-07-06T01:55:47;9.40;;;8.50;;
495;SDS011;39559;48.630;9.162;2022-07-06T01:58:13;9.20;;;8.40;;
495;SDS011;39559;48.630;9.162;2022-07-06T02:02:44;9.40;;;8.50;;
495;SDS011;39559;48.630;9.162;2022-07-06T02:05:10;9.73;;;8.73;;
495;SDS011;39559;48.630;9.162;2022-07-06T02:07:35;9.90;;;8.90;;
495;SDS011;39559;48.630;9.162;2022-07-06T02:10:01;9.23;;;8.43;;
495;SDS011;39559;48.630;9.162;2022-07-06T02:12:26;10.00;;;8.40;;
495;SDS011;39559;48.630;9.162;2022-07-06T02:14:52;8.97;;;8.17;;
495;SDS011;39559;48.630;9.162;2022-07-06T02:17:18;9.50;;;8.50;;
495;SDS011;39559;48.630;9.162;2022-07-06T02:19:43;10.40;;;9.27;;
495;SDS011;39559;48.630;9.162;2022-07-06T02:22:09;10.60;;;8.80;;
495;SDS011;39559;48.630;9.162;2022-07-06T02:26:41;9.80;;;8.80;;
495;SDS011;39559;48.630;9.162;2022-07-06T02:29:06;9.50;;;8.60;;
495;SDS011;39559;48.630;9.162;2022-07-06T02:31:32;9.68;;;8.77;;
495;SDS011;39559;48.630;9.162;2022-07-06T02:33:58;14.43;;;8.43;;
495;SDS011;39559;48.630;9.162;2022-07-06T02:36:23;10.40;;;8.73;;
495;SDS011;39559;48.630;9.162;2022-07-06T02:38:49;12.50;;;9.40;;
495;SDS011;39559;48.630;9.162;2022-07-06T02:41:15;9.57;;;8.67;;
495;SDS011;39559;48.630;9.162;2022-07-06T02:43:40;10.27;;;9.30;;
495;SDS011;39559;48.630;9.162;2022-07-06T02:46:06;10.33;;;9.23;;
495;SDS011;39559;48.630;9.162;2022-07-06T02:50:37;9.07;;;8.27;;
495;SDS011;39559;48.630;9.162;2022-07-06T02:53:02;9.83;;;8.83;;
495;SDS011;39559;48.630;9.162;2022-07-06T02:55:28;10.90;;;9.90;;
495;SDS011;39559;48.630;9.162;2022-07-06T02:57:54;10.17;;;9.27;;
495;SDS011;39559;48.630;9.162;2022-07-06T03:00:19;9.48;;;8.68;;
495;SDS011;39559;48.630;9.162;2022-07-06T03:02:45;10.17;;;9.20;;
495;SDS011;39559;48.630;9.162;2022-07-06T03:05:11;9.67;;;8.87;;
495;SDS011;39559;48.630;9.162;2022-07-06T03:07:36;10.57;;;9.50;;
495;SDS011;39559;48.630;9.162;2022-07-06T03:10:02;9.67;;;8.77;;
495;SDS011;39559;48.630;9.162;2022-07-06T03:14:34;10.25;;;9.25;;
495;SDS011;39559;48.630;9.162;2022-07-06T03:17:00;10.33;;;9.20;;
495;SDS011;39559;48.630;9.162;2022-07-06T03:19:26;10.03;;;9.03;;
495;SDS011;39559;48.630;9.162;2022-07-06T03:21:51;11.20;;;8.97;;
495;SDS011;39559;48.630;9.162;2022-07-06T03:24:17;9.77;;;8.77;;
495;SDS011;39559;48.630;9.162;2022-07-06T03:26:42;11.07;;;9.97;;
495;SDS011;39559;48.630;9.162;2022-07-06T03:29:08;10.80;;;9.40;;
495;SDS011;39559;48.630;9.162;2022-07-06T03:31:33;10.33;;;9.40;;
495;SDS011;39559;48.630;9.162;2022-07-06T03:34:00;11.55;;;10.35;;
495;SDS011;39559;48.630;9.162;2022-07-06T03:38:32;10.07;;;9.10;;
495;SDS011;39559;48.630;9.162;2022-07-06T03:40:57;10.60;;;9.50;;
495;SDS011;39559;48.630;9.162;2022-07-06T03:43:23;11.33;;;9.80;;
495;SDS011;39559;48.630;9.162;2022-07-06T03:45:48;11.00;;;9.60;;
495;SDS011;39559;48.630;9.162;2022-07-06T03:48:14;9.67;;;8.77;;
495;SDS011;39559;48.630;9.162;2022-07-06T03:50:39;10.43;;;9.43;;
495;SDS011;39559;48.630;9.162;2022-07-06T03:53:05;11.60;;;10.30;;
495;SDS011;39559;48.630;9.162;2022-07-06T03:55:30;10.77;;;9.77;;
495;SDS011;39559;48.630;9.162;2022-07-06T03:57:56;11.27;;;10.07;;
495;SDS011;39559;48.630;9.162;2022-07-06T04:02:31;11.38;;;9.73;;
495;SDS011;39559;48.630;9.162;2022-07-06T04:04:59;11.02;;;9.98;;
495;SDS011;39559;48.630;9.162;2022-07-06T04:07:26;11.25;;;10.18;;
495;SDS011;39559;48.630;9.162;2022-07-06T04:09:53;10.73;;;9.73;;
495;SDS011;39559;48.630;9.162;2022-07-06T04:12:20;9.95;;;9.05;;
495;SDS011;39559;48.630;9.162;2022-07-06T04:14:47;14.05;;;10.57;;
495;SDS011;39559;48.630;9.162;2022-07-06T04:17:12;10.83;;;9.83;;
495;SDS011;39559;48.630;9.162;2022-07-06T04:19:57;11.88;;;10.68;;
495;SDS011;39559;48.630;9.162;2022-07-06T04:22:22;10.80;;;9.70;;
495;SDS011;39559;48.630;9.162;2022-07-06T04:26:26;11.30;;;10.23;;
495;SDS011;39559;48.630;9.162;2022-07-06T04:28:51;11.00;;;10.00;;
495;SDS011;39559;48.630;9.162;2022-07-06T04:31:17;10.73;;;9.73;;
495;SDS011;39559;48.630;9.162;2022-07-06T04:33:42;10.83;;;9.73;;
495;SDS011;39559;48.630;9.162;2022-07-06T04:36:09;10.90;;;9.90;;
495;SDS011;39559;48.630;9.162;2022-07-06T04:38:37;10.15;;;9.15;;
495;SDS011;39559;48.630;9.162;2022-07-06T04:41:02;11.60;;;10.50;;
495;SDS011;39559;48.630;9.162;2022-07-06T04:43:28;11.03;;;9.87;;
495;SDS011;39559;48.630;9.162;2022-07-06T04:45:54;10.70;;;9.60;;
495;SDS011;39559;48.630;9.162;2022-07-06T04:50:23;10.15;;;9.15;;
495;SDS011;39559;48.630;9.162;2022-07-06T04:52:49;11.10;;;10.10;;
495;SDS011;39559;48.630;9.162;2022-07-06T04:55:14;11.07;;;9.97;;
495;SDS011;39559;48.630;9.162;2022-07-06T04:57:40;11.07;;;9.97;;
495;SDS011;39559;48.630;9.162;2022-07-06T05:00:05;12.23;;;11.03;;
495;SDS011;39559;48.630;9.162;2022-07-06T05:02:32;12.00;;;10.95;;
495;SDS011;39559;48.630;9.162;2022-07-06T05:04:58;11.17;;;10.07;;
495;SDS011;39559;48.630;9.162;2022-07-06T05:07:24;12.40;;;11.13;;
495;SDS011;39559;48.630;9.162;2022-07-06T05:09:54;12.82;;;11.63;;
495;SDS011;39559;48.630;9.162;2022-07-06T05:14:20;13.15;;;11.73;;
495;SDS011;39559;48.630;9.162;2022-07-06T05:16:46;12.93;;;11.50;;
495;SDS011;39559;48.630;9.162;2022-07-06T05:19:11;11.97;;;10.80;;
495;SDS011;39559;48.630;9.162;2022-07-06T05:21:37;13.50;;;11.10;;
495;SDS011;39559;48.630;9.162;2022-07-06T05:24:03;14.30;;;11.77;;
495;SDS011;39559;48.630;9.162;2022-07-06T05:26:28;14.60;;;13.10;;
495;SDS011;39559;48.630;9.162;2022-07-06T05:28:54;14.27;;;12.87;;
495;SDS011;39559;48.630;9.162;2022-07-06T05:31:20;15.47;;;13.93;;
495;SDS011;39559;48.630;9.162;2022-07-06T05:33:45;14.43;;;13.03;;
495;SDS011;39559;48.630;9.162;2022-07-06T05:38:18;15.65;;;13.90;;
495;SDS011;39559;48.630;9.162;2022-07-06T05:40:44;15.38;;;13.77;;
495;SDS011;39559;48.630;9.162;2022-07-06T05:43:09;16.63;;;14.90;;
495;SDS011;39559;48.630;9.162;2022-07-06T05:45:35;14.60;;;13.10;;
495;SDS011;39559;48.630;9.162;2022-07-06T05:48:00;15.33;;;13.73;;
495;SDS011;39559;48.630;9.162;2022-07-06T05:50:44;13.35;;;12.07;;
495;SDS011;39559;48.630;9.162;2022-07-06T05:53:13;13.27;;;11.97;;
495;SDS011;39559;48.630;9.162;2022-07-06T05:55:39;11.80;;;10.70;;
495;SDS011;39559;48.630;9.162;2022-07-06T05:58:04;11.87;;;10.67;;
495;SDS011;39559;48.630;9.162;2022-07-06T06:02:15;12.25;;;11.15;;
495;SDS011;39559;48.630;9.162;2022-07-06T06:04:41;11.93;;;10.83;;
495;SDS011;39559;48.630;9.162;2022-07-06T06:07:06;12.17;;;10.80;;
495;SDS011;39559;48.630;9.162;2022-07-06T06:09:32;11.37;;;10.30;;
495;SDS011;39559;48.630;9.162;2022-07-06T06:11:57;10.57;;;9.57;;
495;SDS011;39559;48.630;9.162;2022-07-06T06:14:23;10.33;;;9.43;;
495;SDS011;39559;48.630;9.162;2022-07-06T06:16:48;10.33;;;9.23;;
495;SDS011;39559;48.630;9.162;2022-07-06T06:19:14;9.90;;;8.73;;
495;SDS011;39559;48.630;9.162;2022-07-06T06:21:40;9.10;;;8.30;;
495;SDS011;39559;48.630;9.162;2022-07-06T06:26:13;9.80;;;8.82;;
495;SDS011;39559;48.630;9.162;2022-07-06T06:28:38;10.87;;;8.50;;
495;SDS011;39559;48.630;9.162;2022-07-06T06:31:04;9.07;;;8.20;;
495;SDS011;39559;48.630;9.162;2022-07-06T06:33:29;16.33;;;8.30;;
495;SDS011;39559;48.630;9.162;2022-07-06T06:35:55;9.90;;;8.90;;
495;SDS011;39559;48.630;9.162;2022-07-06T06:38:21;9.80;;;8.57;;
495;SDS011;39559;48.630;9.162;2022-07-06T06:40:51;9.20;;;8.27;;
495;SDS011;39559;48.630;9.162;2022-07-06T06:43:17;9.57;;;8.68;;
495;SDS011;39559;48.630;9.162;2022-07-06T06:45:43;10.80;;;8.77;;
495;SDS011;39559;48.630;9.162;2022-07-06T06:50:10;8.65;;;7.82;;
495;SDS011;39559;48.630;9.162;2022-07-06T06:52:36;9.50;;;8.60;;
495;SDS011;39559;48.630;9.162;2022-07-06T06:55:01;9.17;;;8.13;;
495;SDS011;39559;48.630;9.162;2022-07-06T06:57:27;8.30;;;7.50;;
495;SDS011;39559;48.630;9.162;2022-07-06T06:59:54;8.68;;;7.80;;
495;SDS011;39559;48.630;9.162;2022-07-06T07:02:20;10.07;;;7.97;;
495;SDS011;39559;48.630;9.162;2022-07-06T07:04:45;8.20;;;7.40;;
495;SDS011;39559;48.630;9.162;2022-07-06T07:07:11;8.10;;;7.30;;
495;SDS011;39559;48.630;9.162;2022-07-06T07:09:36;8.00;;;7.30;;
495;SDS011;39559;48.630;9.162;2022-07-06T07:14:08;8.60;;;6.80;;
495;SDS011;39559;48.630;9.162;2022-07-06T07:16:33;8.33;;;7.50;;
495;SDS011;39559;48.630;9.162;2022-07-06T07:18:59;8.47;;;7.33;;
495;SDS011;39559;48.630;9.162;2022-07-06T07:21:24;7.43;;;6.63;;
495;SDS011;39559;48.630;9.162;2022-07-06T07:23:50;8.40;;;6.43;;
495;SDS011;39559;48.630;9.162;2022-07-06T07:26:16;8.10;;;7.30;;
495;SDS011;39559;48.630;9.162;2022-07-06T07:28:42;7.38;;;6.68;;
495;SDS011;39559;48.630;9.162;2022-07-06T07:31:07;7.30;;;6.40;;
495;SDS011;39559;48.630;9.162;2022-07-06T07:33:33;9.83;;;7.00;;
495;SDS011;39559;48.630;9.162;2022-07-06T07:38:05;7.57;;;6.80;;
495;SDS011;39559;48.630;9.162;2022-07-06T07:40:30;10.73;;;7.70;;
495;SDS011;39559;48.630;9.162;2022-07-06T07:42:56;9.57;;;7.17;;
495;SDS011;39559;48.630;9.162;2022-07-06T07:45:22;8.23;;;7.30;;
495;SDS011;39559;48.630;9.162;2022-07-06T07:47:48;7.40;;;6.70;;
495;SDS011;39559;48.630;9.162;2022-07-06T07:50:13;9.70;;;6.50;;
495;SDS011;39559;48.630;9.162;2022-07-06T07:52:40;8.40;;;7.40;;
495;SDS011;39559;48.630;9.162;2022-07-06T07:55:05;7.90;;;7.10;;
495;SDS011;39559;48.630;9.162;2022-07-06T07:57:31;8.37;;;7.47;;
495;SDS011;39559;48.630;9.162;2022-07-06T08:02:02;8.00;;;7.30;;
495;SDS011;39559;48.630;9.162;2022-07-06T08:04:28;8.37;;;7.67;;
495;SDS011;39559;48.630;9.162;2022-07-06T08:06:54;8.40;;;7.60;;
495;SDS011;39559;48.630;9.162;2022-07-06T08:09:19;7.40;;;6.60;;
495;SDS011;39559;48.630;9.162;2022-07-06T08:11:45;7.40;;;6.70;;
495;SDS011;39559;48.630;9.162;2022-07-06T08:14:10;8.47;;;7.70;;
495;SDS011;39559;48.630;9.162;2022-07-06T08:16:36;7.67;;;6.70;;
495;SDS011;39559;48.630;9.162;2022-07-06T08:19:02;7.80;;;7.10;;
495;SDS011;39559;48.630;9.162;2022-07-06T08:21:28;7.50;;;6.80;;
495;SDS011;39559;48.630;9.162;2022-07-06T08:26:00;7.43;;;6.73;;
495;SDS011;39559;48.630;9.162;2022-07-06T08:28:30;7.10;;;6.40;;
495;SDS011;39559;48.630;9.162;2022-07-06T08:30:56;7.63;;;6.93;;
495;SDS011;39559;48.630;9.162;2022-07-06T08:33:22;7.97;;;7.30;;
495;SDS011;39559;48.630;9.162;2022-07-06T08:35:48;8.47;;;7.60;;
495;SDS011;39559;48.630;9.162;2022-07-06T08:38:13;7.73;;;6.80;;
495;SDS011;39559;48.630;9.162;2022-07-06T08:40:40;7.40;;;6.70;;
495;SDS011;39559;48.630;9.162;2022-07-06T08:43:06;8.00;;;7.03;;
495;SDS011;39559;48.630;9.162;2022-07-06T08:45:32;8.30;;;7.50;;
495;SDS011;39559;48.630;9.162;2022-07-06T08:49:57;8.20;;;7.50;;
495;SDS011;39559;48.630;9.162;2022-07-06T08:52:23;8.07;;;7.37;;
495;SDS011;39559;48.630;9.162;2022-07-06T08:54:49;8.00;;;7.20;;
495;SDS011;39559;48.630;9.162;2022-07-06T08:57:15;8.03;;;6.97;;
495;SDS011;39559;48.630;9.162;2022-07-06T08:59:42;8.07;;;7.37;;
495;SDS011;39559;48.630;9.162;2022-07-06T09:02:11;7.77;;;6.97;;
495;SDS011;39559;48.630;9.162;2022-07-06T09:04:38;8.70;;;7.90;;
495;SDS011;39559;48.630;9.162;2022-07-06T09:07:07;8.53;;;7.73;;
495;SDS011;39559;48.630;9.162;2022-07-06T09:09:33;7.97;;;7.27;;
495;SDS011;39559;48.630;9.162;2022-07-06T09:13:54;8.00;;;7.20;;
495;SDS011;39559;48.630;9.162;2022-07-06T09:16:24;8.00;;;7.20;;
495;SDS011;39559;48.630;9.162;2022-07-06T09:18:53;9.00;;;8.13;;
495;SDS011;39559;48.630;9.162;2022-07-06T09:21:26;8.57;;;7.77;;
495;SDS011;39559;48.630;9.162;2022-07-06T09:23:56;9.60;;;7.23;;
495;SDS011;39559;48.630;9.162;2022-07-06T09:26:22;7.40;;;6.80;;
495;SDS011;39559;48.630;9.162;2022-07-06T09:28:49;7.30;;;6.70;;
495;SDS011;39559;48.630;9.162;2022-07-06T09:31:15;7.37;;;6.67;;
495;SDS011;39559;48.630;9.162;2022-07-06T09:33:57;7.40;;;6.70;;
495;SDS011;39559;48.630;9.162;2022-07-06T09:38:00;8.33;;;6.50;;
495;SDS011;39559;48.630;9.162;2022-07-06T09:40:33;7.90;;;7.20;;
495;SDS011;39559;48.630;9.162;2022-07-06T09:43:07;7.53;;;6.83;;
495;SDS011;39559;48.630;9.162;2022-07-06T09:45:35;7.20;;;6.50;;
495;SDS011;39559;48.630;9.162;2022-07-06T09:48:06;7.67;;;6.97;;
495;SDS011;39559;48.630;9.162;2022-07-06T09:51:00;7.00;;;6.40;;
495;SDS011;39559;48.630;9.162;2022-07-06T09:53:34;7.00;;;6.40;;
495;SDS011;39559;48.630;9.162;2022-07-06T09:56:00;7.80;;;7.10;;
495;SDS011;39559;48.630;9.162;2022-07-06T09:58:27;8.13;;;7.27;;
495;SDS011;39559;48.630;9.162;2022-07-06T10:01:47;8.13;;;7.23;;
495;SDS011;39559;48.630;9.162;2022-07-06T10:04:17;7.67;;;6.97;;
495;SDS011;39559;48.630;9.162;2022-07-06T10:06:45;7.70;;;7.00;;
495;SDS011;39559;48.630;9.162;2022-07-06T10:09:11;7.03;;;6.43;;
495;SDS011;39559;48.630;9.162;2022-07-06T10:11:38;9.67;;;6.73;;
495;SDS011;39559;48.630;9.162;2022-07-06T10:14:06;7.30;;;6.70;;
495;SDS011;39559;48.630;9.162;2022-07-06T10:16:36;8.03;;;7.10;;
495;SDS011;39559;48.630;9.162;2022-07-06T10:19:04;7.57;;;6.87;;
495;SDS011;39559;48.630;9.162;2022-07-06T10:21:30;6.87;;;6.17;;
495;SDS011;39559;48.630;9.162;2022-07-06T10:25:43;9.53;;;7.07;;
495;SDS011;39559;48.630;9.162;2022-07-06T10:28:10;6.90;;;6.20;;
495;SDS011;39559;48.630;9.162;2022-07-06T10:30:40;9.77;;;6.93;;
495;SDS011;39559;48.630;9.162;2022-07-06T10:33:06;7.03;;;6.30;;
495;SDS011;39559;48.630;9.162;2022-07-06T10:35:32;7.30;;;6.60;;
495;SDS011;39559;48.630;9.162;2022-07-06T10:38:05;8.10;;;6.97;;
495;SDS011;39559;48.630;9.162;2022-07-06T10:40:41;8.13;;;6.23;;
495;SDS011;39559;48.630;9.162;2022-07-06T10:43:31;7.00;;;6.40;;
495;SDS011;39559;48.630;9.162;2022-07-06T10:45:57;8.50;;;7.60;;
495;SDS011;39559;48.630;9.162;2022-07-06T10:49:48;6.93;;;6.33;;
495;SDS011;39559;48.630;9.162;2022-07-06T10:52:17;8.23;;;6.53;;
495;SDS011;39559;48.630;9.162;2022-07-06T10:54:43;7.73;;;7.03;;
495;SDS011;39559;48.630;9.162;2022-07-06T10:57:09;7.90;;;6.80;;
495;SDS011;39559;48.630;9.162;2022-07-06T10:59:40;7.40;;;6.57;;
495;SDS011;39559;48.630;9.162;2022-07-06T11:02:17;7.20;;;6.50;;
495;SDS011;39559;48.630;9.162;2022-07-06T11:04:47;7.70;;;7.00;;
495;SDS011;39559;48.630;9.162;2022-07-06T11:07:14;7.27;;;6.57;;
495;SDS011;39559;48.630;9.162;2022-07-06T11:09:56;7.70;;;6.00;;
495;SDS011;39559;48.630;9.162;2022-07-06T11:13:41;6.93;;;6.33;;
495;SDS011;39559;48.630;9.162;2022-07-06T11:16:18;9.03;;;7.30;;
495;SDS011;39559;48.630;9.162;2022-07-06T11:18:49;7.30;;;6.67;;
495;SDS011;39559;48.630;9.162;2022-07-06T11:21:32;7.93;;;6.33;;
495;SDS011;39559;48.630;9.162;2022-07-06T11:24:26;7.40;;;6.70;;
495;SDS011;39559;48.630;9.162;2022-07-06T11:26:53;7.33;;;6.63;;
495;SDS011;39559;48.630;9.162;2022-07-06T11:29:21;7.37;;;6.67;;
495;SDS011;39559;48.630;9.162;2022-07-06T11:31:49;6.97;;;6.27;;
495;SDS011;39559;48.630;9.162;2022-07-06T11:34:18;7.80;;;7.00;;
495;SDS011;39559;48.630;9.162;2022-07-06T11:37:30;7.70;;;6.97;;
495;SDS011;39559;48.630;9.162;2022-07-06T11:39:56;7.03;;;6.43;;
495;SDS011;39559;48.630;9.162;2022-07-06T11:42:21;7.63;;;6.93;;
495;SDS011;39559;48.630;9.162;2022-07-06T11:44:47;7.47;;;6.77;;
495;SDS011;39559;48.630;9.162;2022-07-06T11:47:15;12.53;;;7.53;;
495;SDS011;39559;48.630;9.162;2022-07-06T11:49:41;7.33;;;6.63;;
495;SDS011;39559;48.630;9.162;2022-07-06T11:52:07;8.63;;;7.73;;
495;SDS011;39559;48.630;9.162;2022-07-06T11:54:34;8.27;;;7.47;;
495;SDS011;39559;48.630;9.162;2022-07-06T11:57:00;10.07;;;7.20;;
495;SDS011;39559;48.630;9.162;2022-07-06T12:01:27;7.93;;;7.13;;
495;SDS011;39559;48.630;9.162;2022-07-06T12:04:00;8.20;;;7.40;;
495;SDS011;39559;48.630;9.162;2022-07-06T12:06:29;9.30;;;7.20;;
495;SDS011;39559;48.630;9.162;2022-07-06T12:08:58;7.33;;;6.63;;
495;SDS011;39559;48.630;9.162;2022-07-06T12:11:29;7.87;;;7.17;;
495;SDS011;39559;48.630;9.162;2022-07-06T12:14:03;8.13;;;7.43;;
495;SDS011;39559;48.630;9.162;2022-07-06T12:16:38;8.93;;;8.03;;
495;SDS011;39559;48.630;9.162;2022-07-06T12:19:05;10.53;;;8.23;;
495;SDS011;39559;48.630;9.162;2022-07-06T12:21:31;8.03;;;7.33;;
495;SDS011;39559;48.630;9.162;2022-07-06T12:25:33;7.87;;;7.17;;
495;SDS011;39559;48.630;9.162;2022-07-06T12:28:00;7.60;;;6.90;;
495;SDS011;39559;48.630;9.162;2022-07-06T12:30:26;8.20;;;7.00;;
495;SDS011;39559;48.630;9.162;2022-07-06T12:33:14;10.87;;;7.70;;
495;SDS011;39559;48.630;9.162;2022-07-06T12:35:40;10.13;;;7.70;;
495;SDS011;39559;48.630;9.162;2022-07-06T12:38:07;8.07;;;7.37;;
495;SDS011;39559;48.630;9.162;2022-07-06T12:40:35;7.47;;;6.77;;
495;SDS011;39559;48.630;9.162;2022-07-06T12:43:01;10.23;;;7.70;;
495;SDS011;39559;48.630;9.162;2022-07-06T12:45:28;8.23;;;7.43;;
495;SDS011;39559;48.630;9.162;2022-07-06T12:49:22;8.03;;;7.23;;
495;SDS011;39559;48.630;9.162;2022-07-06T12:54:18;8.13;;;7.27;;
495;SDS011;39559;48.630;9.162;2022-07-06T12:56:57;8.10;;;7.30;;
495;SDS011;39559;48.630;9.162;2022-07-06T12:59:29;8.30;;;7.50;;
495;SDS011;39559;48.630;9.162;2022-07-06T13:01:56;9.00;;;8.20;;
495;SDS011;39559;48.630;9.162;2022-07-06T13:04:23;9.03;;;7.00;;
495;SDS011;39559;48.630;9.162;2022-07-06T13:06:50;8.77;;;7.73;;
495;SDS011;39559;48.630;9.162;2022-07-06T13:09:16;8.80;;;7.73;;
495;SDS011;39559;48.630;9.162;2022-07-06T13:13:07;8.20;;;7.40;;
495;SDS011;39559;48.630;9.162;2022-07-06T13:15:33;8.93;;;8.03;;
495;SDS011;39559;48.630;9.162;2022-07-06T13:17:59;8.77;;;7.87;;
495;SDS011;39559;48.630;9.162;2022-07-06T13:20:25;7.90;;;6.90;;
495;SDS011;39559;48.630;9.162;2022-07-06T13:22:50;8.40;;;7.60;;
495;SDS011;39559;48.630;9.162;2022-07-06T13:25:16;8.67;;;7.53;;
495;SDS011;39559;48.630;9.162;2022-07-06T13:27:41;6.70;;;6.10;;
495;SDS011;39559;48.630;9.162;2022-07-06T13:30:07;7.63;;;6.93;;
495;SDS011;39559;48.630;9.162;2022-07-06T13:32:33;8.63;;;7.60;;
495;SDS011;39559;48.630;9.162;2022-07-06T13:37:04;7.20;;;6.50;;
495;SDS011;39559;48.630;9.162;2022-07-06T13:39:31;8.87;;;7.87;;
495;SDS011;39559;48.630;9.162;2022-07-06T13:41:57;8.40;;;7.60;;
495;SDS011;39559;48.630;9.162;2022-07-06T13:44:22;9.83;;;7.57;;
495;SDS011;39559;48.630;9.162;2022-07-06T13:46:49;9.30;;;6.37;;
495;SDS011;39559;48.630;9.162;2022-07-06T13:49:15;8.00;;;7.20;;
495;SDS011;39559;48.630;9.162;2022-07-06T13:51:41;8.67;;;6.83;;
495;SDS011;39559;48.630;9.162;2022-07-06T13:54:07;8.40;;;7.03;;
495;SDS011;39559;48.630;9.162;2022-07-06T13:56:33;8.07;;;7.27;;
495;SDS011;39559;48.630;9.162;2022-07-06T14:00:58;10.80;;;7.73;;
495;SDS011;39559;48.630;9.162;2022-07-06T14:03:24;7.40;;;6.70;;
495;SDS011;39559;48.630;9.162;2022-07-06T14:05:55;8.30;;;7.50;;
495;SDS011;39559;48.630;9.162;2022-07-06T14:08:22;8.17;;;7.17;;
495;SDS011;39559;48.630;9.162;2022-07-06T14:10:48;7.90;;;7.10;;
495;SDS011;39559;48.630;9.162;2022-07-06T14:13:13;8.10;;;7.30;;
495;SDS011;39559;48.630;9.162;2022-07-06T14:15:39;7.40;;;6.70;;
495;SDS011;39559;48.630;9.162;2022-07-06T14:18:04;12.57;;;7.07;;
495;SDS011;39559;48.630;9.162;2022-07-06T14:20:30;7.10;;;6.50;;
495;SDS011;39559;48.630;9.162;2022-07-06T14:24:52;7.83;;;7.13;;
495;SDS011;39559;48.630;9.162;2022-07-06T14:27:18;7.47;;;6.77;;
495;SDS011;39559;48.630;9.162;2022-07-06T14:29:43;7.63;;;6.93;;
495;SDS011;39559;48.630;9.162;2022-07-06T14:32:09;7.53;;;6.73;;
495;SDS011;39559;48.630;9.162;2022-07-06T14:34:34;7.80;;;7.00;;
495;SDS011;39559;48.630;9.162;2022-07-06T14:37:00;7.87;;;7.10;;
495;SDS011;39559;48.630;9.162;2022-07-06T14:39:26;7.63;;;6.40;;
495;SDS011;39559;48.630;9.162;2022-07-06T14:41:51;7.17;;;6.53;;
495;SDS011;39559;48.630;9.162;2022-07-06T14:44:17;7.20;;;6.50;;
495;SDS011;39559;48.630;9.162;2022-07-06T14:48:46;6.93;;;6.33;;
495;SDS011;39559;48.630;9.162;2022-07-06T14:51:12;7.73;;;6.47;;
495;SDS011;39559;48.630;9.162;2022-07-06T14:53:37;6.50;;;5.97;;
495;SDS011;39559;48.630;9.162;2022-07-06T14:56:03;6.40;;;5.80;;
495;SDS011;39559;48.630;9.162;2022-07-06T14:58:29;6.70;;;5.87;;
495;SDS011;39559;48.630;9.162;2022-07-06T15:00:55;7.40;;;6.13;;
495;SDS011;39559;48.630;9.162;2022-07-06T15:03:20;7.20;;;6.50;;
495;SDS011;39559;48.630;9.162;2022-07-06T15:05:46;6.03;;;5.53;;
495;SDS011;39559;48.630;9.162;2022-07-06T15:08:13;6.80;;;5.53;;
495;SDS011;39559;48.630;9.162;2022-07-06T15:12:40;6.57;;;5.97;;
495;SDS011;39559;48.630;9.162;2022-07-06T15:15:06;6.43;;;5.83;;
495;SDS011;39559;48.630;9.162;2022-07-06T15:17:32;6.10;;;5.60;;
495;SDS011;39559;48.630;9.162;2022-07-06T15:19:58;6.47;;;5.97;;
495;SDS011;39559;48.630;9.162;2022-07-06T15:22:24;6.80;;;6.10;;
495;SDS011;39559;48.630;9.162;2022-07-06T15:24:50;6.13;;;5.57;;
495;SDS011;39559;48.630;9.162;2022-07-06T15:27:16;6.60;;;6.00;;
495;SDS011;39559;48.630;9.162;2022-07-06T15:29:42;6.43;;;5.83;;
495;SDS011;39559;48.630;9.162;2022-07-06T15:32:07;5.80;;;5.30;;
495;SDS011;39559;48.630;9.162;2022-07-06T15:36:34;6.30;;;5.70;;
495;SDS011;39559;48.630;9.162;2022-07-06T15:38:59;6.93;;;6.33;;
495;SDS011;39559;48.630;9.162;2022-07-06T15:41:25;5.90;;;5.40;;
495;SDS011;39559;48.630;9.162;2022-07-06T15:43:51;6.57;;;5.90;;
495;SDS011;39559;48.630;9.162;2022-07-06T15:46:17;6.33;;;5.43;;
495;SDS011;39559;48.630;9.162;2022-07-06T15:48:42;5.93;;;5.43;;
495;SDS011;39559;48.630;9.162;2022-07-06T15:51:08;6.73;;;5.83;;
495;SDS011;39559;48.630;9.162;2022-07-06T15:53:34;5.60;;;5.10;;
495;SDS011;39559;48.630;9.162;2022-07-06T15:56:00;6.53;;;5.93;;
495;SDS011;39559;48.630;9.162;2022-07-06T16:00:27;5.97;;;5.43;;
495;SDS011;39559;48.630;9.162;2022-07-06T16:02:53;5.67;;;5.17;;
495;SDS011;39559;48.630;9.162;2022-07-06T16:05:19;5.93;;;5.40;;
495;SDS011;39559;48.630;9.162;2022-07-06T16:07:49;5.87;;;5.23;;
495;SDS011;39559;48.630;9.162;2022-07-06T16:10:15;5.73;;;5.23;;
495;SDS011;39559;48.630;9.162;2022-07-06T16:12:40;5.47;;;4.97;;
495;SDS011;39559;48.630;9.162;2022-07-06T16:15:06;5.93;;;4.93;;
495;SDS011;39559;48.630;9.162;2022-07-06T16:17:33;5.30;;;4.80;;
495;SDS011;39559;48.630;9.162;2022-07-06T16:19:58;6.40;;;4.90;;
495;SDS011;39559;48.630;9.162;2022-07-06T16:24:21;5.50;;;5.00;;
495;SDS011;39559;48.630;9.162;2022-07-06T16:26:47;5.37;;;4.87;;
495;SDS011;39559;48.630;9.162;2022-07-06T16:29:12;8.33;;;4.93;;
495;SDS011;39559;48.630;9.162;2022-07-06T16:31:38;5.43;;;4.83;;